Time;durP1;ratioP1;P1;durP2;ratioP2;P2;SDS_P1;SDS_P2;PMS_P1;PMS_P2;Temp;Humidity;BMP_temperature;BMP_pressure;BME280_temperature;BME280_humidity;BME280_pressure;Samples;Min_cycle;Max_cycle;Signal;HPM_P1;HPM_P2
2023/01/12 00:03:29;;;;;;;6.85;2.53;;;10.60;62.50;;;9.45;63.13;100916.72;12256771;19;20019;-86
2023/01/12 00:07:32;;;;;;;4.30;2.33;;;10.60;62.70;;;9.28;62.98;100890.59;12257451;19;20414;-86
2023/01/12 00:11:35;;;;;;;5.13;2.67;;;10.60;62.80;;;9.34;63.28;100884.22;12256858;19;20011;-86
2023/01/12 00:19:56;;;;;;;3.35;2.22;;;10.50;62.90;;;9.31;63.29;100893.03;12259533;19;20011;-86
2023/01/12 00:23:58;;;;;;;2.30;2.05;;;10.50;62.90;;;9.33;63.25;100890.38;12252073;19;20030;-86
2023/01/12 00:27:59;;;;;;;2.53;1.90;;;10.60;63.00;;;9.31;63.23;100900.84;12257722;19;20007;-86
2023/01/12 00:32:02;;;;;;;3.20;2.13;;;10.50;63.00;;;9.28;63.03;100901.00;12253526;19;20018;-85
2023/01/12 00:36:08;;;;;;;2.80;2.00;;;10.50;63.00;;;9.29;63.17;100919.19;12253210;19;20010;-86
2023/01/12 00:40:11;;;;;;;4.25;2.05;;;10.40;63.50;;;9.25;63.24;100930.66;12257078;19;20006;-85
2023/01/12 00:48:33;;;;;;;3.60;1.98;;;10.40;62.80;;;9.20;62.97;100890.09;12255801;19;21540;-86
2023/01/12 00:52:35;;;;;;;6.13;2.13;;;10.40;62.80;;;9.23;63.26;100898.59;12252710;19;20046;-86
2023/01/12 00:56:37;;;;;;;5.28;1.70;;;10.40;62.70;;;9.18;63.19;100890.19;12255032;19;20037;-86
2023/01/12 01:00:39;;;;;;;4.93;1.63;;;10.40;62.70;;;9.23;63.22;100898.59;12255644;19;20006;-86
2023/01/12 01:04:41;;;;;;;4.72;1.67;;;10.40;62.70;;;9.20;63.39;100892.72;12250019;19;20047;-86
2023/01/12 01:08:43;;;;;;;2.28;1.27;;;10.40;62.70;;;9.12;63.12;100874.81;12253755;19;20010;-85
2023/01/12 01:12:45;;;;;;;2.80;1.40;;;10.40;62.70;;;9.13;63.25;100873.06;12251470;19;20015;-85
2023/01/12 01:16:46;;;;;;;2.47;1.42;;;10.60;62.90;;;9.22;63.18;100899.53;12251728;19;20515;-86
2023/01/12 01:20:48;;;;;;;1.92;1.40;;;10.40;62.60;;;9.18;63.17;100895.41;12254588;19;20019;-85
2023/01/12 01:24:50;;;;;;;3.83;1.17;;;10.40;62.50;;;9.13;63.37;100891.28;12250862;19;20589;-85
2023/01/12 01:28:52;;;;;;;4.35;1.92;;;10.30;62.40;;;9.18;63.20;100898.00;12253411;19;20457;-85
2023/01/12 01:32:54;;;;;;;2.30;1.27;;;10.30;62.40;;;9.10;63.14;100866.25;12253133;19;20031;-85
2023/01/12 01:36:58;;;;;;;2.10;0.95;;;10.30;62.50;;;9.17;63.15;100885.03;12250222;19;20013;-84
2023/01/12 01:41:02;;;;;;;3.50;1.10;;;10.30;62.40;;;9.10;63.22;100879.28;12253093;19;20006;-86
2023/01/12 01:45:09;;;;;;;3.92;1.27;;;10.30;62.40;;;9.07;63.33;100866.38;12248407;19;20014;-86
2023/01/12 01:49:23;;;;;;;5.50;1.40;;;10.30;62.30;;;9.09;63.18;100869.75;12251288;19;20014;-85
2023/01/12 01:53:28;;;;;;;4.68;1.45;;;10.30;62.30;;;9.09;63.28;100857.56;12246835;19;20022;-85
2023/01/12 01:57:41;;;;;;;3.65;1.23;;;10.30;62.30;;;9.00;63.19;100825.91;12247693;19;20018;-85
2023/01/12 02:01:43;;;;;;;4.32;1.38;;;10.30;62.30;;;8.95;63.39;100828.72;12249428;19;20034;-85
2023/01/12 02:05:47;;;;;;;3.53;1.13;;;10.30;62.20;;;8.97;63.38;100818.25;12250892;19;20011;-85
2023/01/12 02:09:50;;;;;;;1.77;1.10;;;10.30;62.20;;;9.01;63.17;100815.41;12249344;19;20018;-85
2023/01/12 02:19:06;;;;;;;3.22;1.00;;;10.30;62.20;;;9.06;63.40;100836.03;12260243;19;20500;-85
2023/01/12 02:23:28;;;;;;;2.13;1.13;;;10.30;62.10;;;9.09;63.35;100828.06;12258231;19;20006;-86
2023/01/12 02:27:56;;;;;;;2.95;1.00;;;10.30;62.10;;;9.01;63.39;100815.41;12261306;19;20018;-85
2023/01/12 02:32:40;;;;;;;1.70;1.02;;;10.30;62.10;;;9.10;63.28;100832.38;12260665;19;20494;-85
2023/01/12 02:37:04;;;;;;;4.80;1.10;;;10.30;62.10;;;9.14;63.19;100831.31;12258244;19;20010;-85
2023/01/12 02:46:18;;;;;;;3.13;1.10;;;10.30;62.00;;;9.03;63.06;100791.91;12260224;19;20378;-85
2023/01/12 02:50:59;;;;;;;2.15;1.25;;;10.30;62.00;;;9.14;63.15;100802.66;12255450;19;20808;-85
2023/01/12 02:55:03;;;;;;;1.17;0.85;;;10.30;62.00;;;9.07;63.44;100791.69;12256102;19;20031;-86
2023/01/12 02:59:13;;;;;;;1.70;1.17;;;10.40;62.10;;;8.98;63.35;100776.50;12258876;19;20359;-85
2023/01/12 03:03:16;;;;;;;4.32;1.20;;;10.40;62.20;;;9.17;63.44;100804.28;12256793;19;20010;-85
2023/01/12 03:07:44;;;;;;;2.72;1.10;;;10.40;62.30;;;9.04;63.31;100778.78;12259527;19;20020;-85
2023/01/12 03:11:49;;;;;;;4.47;1.25;;;10.40;62.60;;;9.16;63.30;100793.00;12254682;19;20485;-85
2023/01/12 03:15:54;;;;;;;3.38;1.00;;;10.40;62.40;;;9.21;63.44;100795.41;12253599;19;20078;-85
2023/01/12 03:20:21;;;;;;;2.47;1.73;;;10.40;62.60;;;9.19;63.37;100785.03;12256784;19;20544;-85
2023/01/12 03:24:34;;;;;;;2.08;1.00;;;10.40;62.60;;;9.16;63.50;100774.78;12250910;19;20052;-86
2023/01/12 03:28:39;;;;;;;1.58;1.02;;;10.40;62.70;;;9.14;63.43;100758.38;12253734;19;20014;-85
2023/01/12 03:32:41;;;;;;;;;;;10.50;62.80;;;9.17;63.20;100767.78;12254771;19;20011;-85
2023/01/12 03:37:11;;;;;;;3.75;0.90;;;10.40;62.90;;;9.17;63.45;100758.22;12252759;19;19923;-85
2023/01/12 03:42:06;;;;;;;1.75;0.90;;;10.40;62.90;;;9.23;63.42;100764.88;12253152;19;20412;-85
2023/01/12 03:46:41;;;;;;;2.78;1.00;;;10.40;62.80;;;9.20;63.54;100765.03;12255045;19;20018;-85
2023/01/12 03:51:26;;;;;;;2.55;1.27;;;10.40;62.90;;;9.24;63.28;100769.19;12254486;19;20457;-86
2023/01/12 03:55:31;;;;;;;2.13;0.98;;;10.50;63.00;;;9.19;63.30;100748.56;12250836;19;20087;-86
2023/01/12 03:59:33;;;;;;;3.70;1.10;;;10.40;62.60;;;9.25;63.54;100757.84;12254329;19;20011;-85
2023/01/12 04:03:35;;;;;;;3.28;1.20;;;10.50;62.90;;;9.28;63.39;100761.13;12250850;19;20338;-85
2023/01/12 04:07:37;;;;;;;4.43;1.65;;;10.50;62.90;;;9.31;63.56;100760.13;12253635;19;20074;-85
2023/01/12 04:15:58;;;;;;;2.15;1.15;;;10.50;62.80;;;9.30;63.47;100761.91;12251328;19;20015;-85
2023/01/12 04:20:00;;;;;;;2.05;0.93;;;10.50;62.70;;;9.25;63.42;100750.03;12254350;19;20042;-85
2023/01/12 04:24:02;;;;;;;2.40;1.38;;;10.70;62.80;;;9.31;63.40;100755.75;12250413;19;20366;-86
2023/01/12 04:28:04;;;;;;;1.83;1.00;;;10.50;63.10;;;9.35;63.42;100755.63;12252073;19;20342;-85
2023/01/12 04:32:07;;;;;;;2.88;1.23;;;10.60;62.50;;;9.38;63.47;100737.25;12253226;19;20019;-85
2023/01/12 04:36:12;;;;;;;1.83;0.80;;;10.60;62.10;;;9.11;63.38;100693.41;12250383;19;20481;-85
2023/01/12 04:40:15;;;;;;;1.98;1.30;;;10.60;62.20;;;9.39;63.58;100726.72;12254186;19;20014;-85
2023/01/12 04:44:17;;;;;;;0.98;0.80;;;10.60;62.20;;;9.50;63.61;100734.00;12249157;19;20011;-85
2023/01/12 04:48:18;;;;;;;2.05;1.05;;;10.60;62.00;;;9.48;63.51;100721.06;12251215;19;20572;-85
2023/01/12 04:52:20;;;;;;;1.75;1.05;;;10.70;61.90;;;9.41;63.48;100709.25;12251247;19;20014;-85
2023/01/12 04:56:22;;;;;;;3.20;1.08;;;10.70;62.00;;;9.45;63.26;100710.78;12250914;19;20019;-85
2023/01/12 05:00:24;;;;;;;2.65;1.48;;;10.70;61.90;;;9.51;63.45;100715.69;12250909;19;20010;-86
2023/01/12 05:04:25;;;;;;;2.47;1.13;;;10.70;61.70;;;9.51;63.36;100712.25;12247430;19;20021;-85
2023/01/12 05:12:48;;;;;;;1.45;0.85;;;10.80;61.60;;;9.56;63.61;100709.38;12248701;19;20014;-86
2023/01/12 05:16:49;;;;;;;5.00;1.23;;;10.80;61.60;;;9.48;63.51;100696.75;12248794;19;20035;-86
2023/01/12 05:20:51;;;;;;;2.92;1.05;;;10.80;61.60;;;9.52;63.28;100700.88;12250380;19;20025;-85
2023/01/12 05:24:52;;;;;;;2.88;1.02;;;10.80;61.60;;;9.44;63.62;100674.38;12245611;19;20011;-85
2023/01/12 05:28:54;;;;;;;2.63;0.93;;;11.10;61.80;;;9.39;63.39;100645.09;12247016;19;20068;-85
2023/01/12 05:32:56;;;;;;;4.47;0.80;;;10.90;61.60;;;9.60;63.42;100687.47;12243330;19;20018;-86
2023/01/12 05:36:58;;;;;;;2.47;1.10;;;10.90;61.50;;;9.57;63.35;100675.44;12246322;19;20367;-85
2023/01/12 05:41:01;;;;;;;1.83;0.95;;;10.90;61.30;;;9.28;63.25;100615.22;12248030;19;20006;-85
2023/01/12 05:45:04;;;;;;;1.80;0.95;;;10.90;61.30;;;9.77;63.30;100684.81;12245179;19;20037;-85
2023/01/12 05:49:06;;;;;;;2.60;1.13;;;10.90;61.10;;;9.79;63.42;100680.34;12248579;19;20383;-84
2023/01/12 05:53:09;;;;;;;4.32;1.00;;;11.00;61.20;;;9.73;63.32;100673.69;12249981;19;20018;-85
2023/01/12 05:57:10;;;;;;;2.67;1.10;;;11.00;61.80;;;9.80;63.36;100687.25;12246260;19;20041;-85
2023/01/12 06:01:12;;;;;;;2.03;1.17;;;11.00;61.10;;;9.86;63.32;100683.50;12250968;19;20014;-85
2023/01/12 06:05:14;;;;;;;1.42;0.70;;;11.10;61.10;;;9.82;63.46;100677.59;12246201;19;20026;-86
2023/01/12 06:09:16;;;;;;;2.45;0.90;;;11.10;61.00;;;9.88;63.36;100695.53;12249345;19;20034;-85
2023/01/12 06:17:38;;;;;;;2.58;1.00;;;11.10;60.90;;;9.88;63.33;100679.03;12246330;19;20029;-85
2023/01/12 06:21:40;;;;;;;1.42;0.80;;;11.20;60.70;;;9.96;63.29;100680.31;12245197;19;20497;-85
2023/01/12 06:25:42;;;;;;;2.72;0.93;;;11.20;60.90;;;9.95;63.42;100677.78;12247307;19;20011;-85
2023/01/12 06:29:43;;;;;;;2.00;0.80;;;11.20;60.80;;;9.89;63.29;100652.03;12244185;19;20014;-84
2023/01/12 06:33:45;;;;;;;3.75;1.20;;;11.20;60.60;;;10.07;63.29;100677.13;12242440;19;20011;-85
2023/01/12 06:37:47;;;;;;;2.20;0.82;;;11.20;60.60;;;10.03;63.16;100665.16;12240491;19;20017;-85
2023/01/12 06:46:09;;;;;;;5.93;1.25;;;11.30;60.50;;;10.06;63.21;100661.56;12246670;19;20019;-85
2023/01/12 06:50:12;;;;;;;2.35;1.10;;;11.30;60.50;;;10.10;63.20;100663.06;12251974;19;20529;-85
2023/01/12 06:54:13;;;;;;;2.40;1.05;;;11.30;60.30;;;10.13;63.24;100663.75;12244262;19;20023;-85
2023/01/12 06:58:18;;;;;;;2.38;1.20;;;11.40;60.20;;;10.17;63.06;100661.81;12240695;19;20018;-86
2023/01/12 07:02:20;;;;;;;3.58;1.15;;;11.40;60.00;;;9.85;62.99;100611.38;12247418;19;20031;-87
2023/01/12 07:06:22;;;;;;;1.52;0.75;;;11.40;60.10;;;10.15;63.10;100659.31;12264794;19;20018;-87
2023/01/12 07:10:24;;;;;;;3.28;0.88;;;11.40;60.20;;;10.20;62.99;100661.63;12265602;19;20011;-87
2023/01/12 07:14:25;;;;;;;3.42;1.08;;;11.40;60.10;;;10.17;63.18;100647.00;12262987;19;20484;-87
2023/01/12 07:18:29;;;;;;;1.77;1.10;;;11.40;60.00;;;9.98;63.05;100617.63;12263075;19;20034;-87
2023/01/12 07:22:30;;;;;;;2.15;0.90;;;11.40;60.00;;;10.22;63.06;100651.97;12268202;19;20028;-90
2023/01/12 07:26:32;;;;;;;1.52;1.13;;;11.40;60.00;;;10.16;63.02;100634.88;12267432;19;20026;-86
2023/01/12 07:30:33;;;;;;;5.13;0.82;;;11.50;60.00;;;9.99;62.93;100601.06;12263227;19;20011;-88
2023/01/12 07:34:35;;;;;;;2.78;1.13;;;11.50;60.00;;;10.30;62.99;100646.34;12262232;19;20014;-88
2023/01/12 07:38:37;;;;;;;3.53;1.17;;;11.50;60.00;;;10.06;63.14;100601.56;12264022;19;20031;-86
2023/01/12 07:42:38;;;;;;;2.10;0.93;;;11.50;60.00;;;10.24;63.04;100625.78;12266499;19;20010;-87
2023/01/12 07:46:40;;;;;;;1.95;0.98;;;11.50;60.00;;;10.13;63.00;100589.84;12255166;19;20362;-87
2023/01/12 07:50:42;;;;;;;3.53;1.13;;;11.60;60.10;;;10.40;62.93;100626.66;12171751;19;20014;-89
2023/01/12 07:54:44;;;;;;;2.50;0.90;;;11.60;60.00;;;10.44;62.88;100628.16;12192183;19;20026;-88
2023/01/12 07:58:48;;;;;;;3.03;1.02;;;11.60;60.00;;;10.42;62.99;100606.50;12166493;19;20026;-88
2023/01/12 08:02:52;;;;;;;2.58;1.00;;;11.60;60.00;;;10.41;62.92;100602.22;12162078;19;20030;-88
2023/01/12 08:06:54;;;;;;;2.10;1.35;;;11.70;60.00;;;10.53;62.99;100611.13;12167181;19;20015;-88
2023/01/12 08:11:04;;;;;;;2.38;1.00;;;11.70;59.90;;;10.52;62.98;100597.22;12166512;19;20928;-87
2023/01/12 08:15:08;;;;;;;4.18;1.23;;;11.80;59.90;;;10.57;62.99;100589.97;12218438;19;20010;-88
2023/01/12 08:19:20;;;;;;;2.10;0.93;;;11.80;59.80;;;10.33;62.96;100560.88;12254183;19;20006;-88
2023/01/12 08:23:36;;;;;;;0.65;0.60;;;11.80;59.70;;;10.50;62.79;100575.56;12248446;19;20098;-88
2023/01/12 08:27:42;;;;;;;3.22;0.80;;;11.80;59.80;;;10.55;63.09;100584.00;12256812;19;20425;-89
2023/01/12 08:31:44;;;;;;;3.53;0.90;;;11.90;59.80;;;10.59;62.95;100576.84;12253666;19;20010;-89
2023/01/12 08:35:47;;;;;;;4.07;1.42;;;11.80;59.70;;;10.62;62.77;100576.66;12255013;19;20070;-88
2023/01/12 08:39:50;;;;;;;1.48;0.70;;;11.90;59.70;;;10.62;62.99;100572.28;12256708;19;20030;-88
2023/01/12 08:44:09;;;;;;;4.32;1.20;;;11.90;59.60;;;10.75;62.79;100589.88;12254692;19;20021;-88
2023/01/12 08:48:11;;;;;;;2.20;0.90;;;11.90;59.60;;;10.68;62.81;100562.41;12256071;19;20485;-89
2023/01/12 08:52:15;;;;;;;1.58;0.93;;;12.00;59.50;;;10.68;62.82;100557.19;12250612;19;20022;-89
2023/01/12 08:56:17;;;;;;;1.70;0.80;;;12.00;59.50;;;10.73;62.74;100560.38;12231651;19;20094;-88
2023/01/12 09:00:19;;;;;;;3.65;1.25;;;12.00;59.50;;;10.74;62.86;100547.22;12253762;19;20057;-88
2023/01/12 09:04:21;;;;;;;1.63;1.40;;;12.00;59.50;;;10.89;62.60;100561.16;12251662;19;20486;-88
2023/01/12 09:08:23;;;;;;;3.10;1.00;;;12.10;59.60;;;10.86;62.81;100550.88;12247288;19;20029;-88
2023/01/12 09:12:25;;;;;;;3.65;0.98;;;12.10;59.60;;;10.90;62.61;100544.53;12253201;19;20017;-88
2023/01/12 09:16:30;;;;;;;4.07;1.40;;;12.20;59.60;;;10.72;62.56;100496.00;12250343;19;20038;-87
2023/01/12 09:20:33;;;;;;;3.90;1.13;;;12.10;59.30;;;10.98;62.79;100544.91;12253500;19;20467;-88
2023/01/12 09:24:34;;;;;;;2.70;0.68;;;12.20;59.50;;;11.04;62.69;100536.72;12246565;19;20011;-88
2023/01/12 09:28:37;;;;;;;2.45;0.75;;;12.20;59.30;;;10.71;62.54;100479.50;12250637;19;20379;-88
2023/01/12 09:32:39;;;;;;;1.33;0.80;;;12.30;59.50;;;11.01;62.73;100518.59;12249960;19;20074;-88
2023/01/12 09:36:41;;;;;;;2.33;1.15;;;12.30;59.30;;;11.13;62.69;100537.09;12250316;19;20021;-87
2023/01/12 09:40:43;;;;;;;2.75;1.50;;;12.30;59.40;;;10.88;62.45;100486.31;12250739;19;20011;-89
2023/01/12 09:49:11;;;;;;;3.03;1.20;;;12.30;59.00;;;11.11;62.59;100513.66;12250566;19;20018;-87
2023/01/12 09:53:41;;;;;;;2.40;1.02;;;12.40;59.20;;;11.14;62.58;100502.19;12250085;19;20074;-87
2023/01/12 09:58:10;;;;;;;4.00;0.98;;;12.40;59.20;;;11.22;62.46;100505.16;12248695;19;20015;-87
2023/01/12 10:02:13;;;;;;;2.50;1.10;;;12.40;59.30;;;11.21;62.66;100480.81;12253333;19;20019;-89
2023/01/12 10:06:19;;;;;;;3.50;1.25;;;12.40;59.20;;;11.21;62.46;100477.38;12252139;19;20011;-88
2023/01/12 10:10:20;;;;;;;2.90;1.10;;;12.50;59.20;;;11.23;62.30;100455.44;12250586;19;20019;-87
2023/01/12 10:14:31;;;;;;;3.55;1.10;;;12.50;58.80;;;11.43;62.25;100485.53;12249457;19;20050;-89
2023/01/12 10:18:41;;;;;;;2.83;0.90;;;12.60;59.10;;;11.20;62.28;100431.25;12246319;19;20082;-89
2023/01/12 10:23:00;;;;;;;3.75;1.23;;;12.60;58.90;;;11.54;62.28;100489.25;12250148;19;20015;-89
2023/01/12 10:27:03;;;;;;;3.38;1.00;;;12.70;58.90;;;11.54;62.37;100474.41;12248834;19;20018;-88
2023/01/12 10:31:04;;;;;;;3.25;1.00;;;12.70;58.90;;;11.52;62.33;100450.13;12249464;19;20488;-88
2023/01/12 10:35:15;;;;;;;2.50;1.20;;;13.00;59.00;;;11.58;62.37;100441.03;12247586;19;20014;-88
2023/01/12 10:39:37;;;;;;;1.35;0.80;;;12.90;58.70;;;11.66;62.24;100441.41;12262273;19;20046;-88
2023/01/12 10:43:42;;;;;;;2.35;0.77;;;12.90;58.90;;;11.64;62.17;100432.84;12257178;19;20014;-87
2023/01/12 10:47:45;;;;;;;1.88;0.88;;;12.90;59.00;;;11.68;62.17;100423.84;12260529;19;20014;-87
2023/01/12 10:52:19;;;;;;;2.88;0.90;;;13.00;58.70;;;11.54;62.29;100380.25;12259100;19;20025;-87
2023/01/12 10:56:38;;;;;;;2.17;1.10;;;13.00;58.70;;;11.82;62.20;100436.00;12258175;19;20057;-87
2023/01/12 11:00:50;;;;;;;1.20;0.90;;;13.00;58.80;;;11.81;62.23;100405.56;12262001;19;20010;-89
2023/01/12 11:04:53;;;;;;;0.98;0.80;;;13.10;58.70;;;11.95;62.13;100423.84;12253930;19;20014;-87
2023/01/12 11:08:56;;;;;;;2.00;0.80;;;13.10;58.70;;;11.95;62.22;100406.34;12261581;19;20018;-88
2023/01/12 11:13:02;;;;;;;3.22;0.90;;;13.10;58.60;;;11.71;62.02;100355.63;12254274;19;20477;-87
2023/01/12 11:17:44;;;;;;;1.10;0.77;;;13.20;58.30;;;12.01;61.99;100386.78;12253806;19;20010;-87
2023/01/12 11:22:00;;;;;;;5.15;1.05;;;13.20;58.70;;;12.00;62.08;100397.38;12257462;19;20014;-87
2023/01/12 11:26:30;;;;;;;2.85;0.90;;;13.30;58.90;;;11.89;62.05;100354.44;12258265;19;20011;-88
2023/01/12 11:31:07;;;;;;;3.33;1.00;;;13.20;58.80;;;12.02;62.03;100369.34;12255707;19;20444;-88
2023/01/12 11:35:43;;;;;;;1.75;0.82;;;13.20;58.60;;;12.03;61.98;100356.13;12253543;19;20007;-88
2023/01/12 11:39:56;;;;;;;1.33;1.05;;;13.30;59.00;;;11.93;61.90;100342.81;12256046;19;20031;-88
2023/01/12 11:44:19;;;;;;;2.40;1.08;;;13.30;59.20;;;12.01;62.00;100350.16;12253035;19;20359;-88
2023/01/12 11:48:31;;;;;;;2.83;1.08;;;13.20;59.10;;;11.95;61.90;100348.78;12257097;19;20047;-88
2023/01/12 11:52:34;;;;;;;4.45;0.80;;;13.20;59.30;;;11.85;61.92;100320.69;12255768;19;20034;-88
2023/01/12 11:57:19;;;;;;;2.70;0.90;;;13.20;59.40;;;11.92;61.96;100353.41;12253740;19;20011;-88
2023/01/12 12:01:48;;;;;;;5.15;1.30;;;13.10;59.50;;;11.81;61.94;100338.38;12254179;19;20098;-88
2023/01/12 12:06:54;;;;;;;1.70;0.70;;;13.10;59.70;;;11.84;62.13;100350.41;12259143;19;20337;-88
2023/01/12 12:11:18;;;;;;;0.90;0.80;;;13.00;59.90;;;11.67;62.05;100322.78;12254812;19;20023;-88
2023/01/12 12:15:37;;;;;;;2.05;0.90;;;12.90;60.10;;;11.77;62.20;100354.38;12254267;19;20424;-88
2023/01/12 12:19:39;;;;;;;4.45;1.02;;;12.90;60.10;;;11.79;62.12;100342.03;12256587;19;20022;-88
2023/01/12 12:24:11;;;;;;;1.80;0.80;;;12.90;60.20;;;11.77;62.20;100346.53;12256269;19;20026;-88
2023/01/12 12:29:19;;;;;;;1.67;0.88;;;12.90;60.30;;;11.76;62.12;100344.88;12259535;19;20007;-89
2023/01/12 12:33:58;;;;;;;0.60;0.60;;;12.90;60.40;;;11.73;62.17;100328.41;12249398;19;20023;-88
2023/01/12 12:38:34;;;;;;;2.25;0.77;;;12.90;60.20;;;11.71;62.19;100329.47;12247275;19;20402;-88
2023/01/12 12:47:48;;;;;;;2.97;0.68;;;12.90;60.10;;;11.83;62.03;100339.13;12258650;19;20017;-88
2023/01/12 12:51:51;;;;;;;1.05;0.70;;;12.90;59.90;;;11.72;62.20;100313.69;12255972;19;20498;-88
2023/01/12 12:56:05;;;;;;;0.65;0.40;;;13.00;60.00;;;11.84;62.13;100317.25;12255418;19;20019;-88
2023/01/12 13:00:41;;;;;;;0.75;0.70;;;13.00;59.70;;;11.74;62.21;100310.94;12252020;19;20034;-88
2023/01/12 13:04:43;;;;;;;;;;;13.00;59.60;;;11.94;62.03;100322.75;12252799;19;20070;-88
2023/01/12 13:08:47;;;;;;;2.05;0.60;;;13.10;60.30;;;11.90;62.13;100309.00;12257121;19;19924;-88
2023/01/12 13:13:03;;;;;;;0.50;0.50;;;13.10;59.40;;;12.02;62.04;100332.69;12255082;19;20009;-88
2023/01/12 13:17:22;;;;;;;0.50;0.50;;;13.10;59.50;;;12.06;62.08;100308.81;12255014;19;20015;-89
2023/01/12 13:21:56;;;;;;;1.27;0.55;;;13.20;59.40;;;12.08;62.07;100329.66;12254644;19;20028;-88
2023/01/12 13:25:58;;;;;;;1.00;0.90;;;13.20;59.40;;;12.03;62.13;100284.63;12256363;19;20011;-87
2023/01/12 13:30:21;;;;;;;0.50;0.50;;;13.20;59.50;;;12.13;62.00;100317.09;12252515;19;20436;-88
2023/01/12 13:34:37;;;;;;;0.50;0.50;;;13.30;59.10;;;12.14;62.06;100303.06;12252460;19;20007;-88
2023/01/12 13:38:59;;;;;;;0.50;0.50;;;13.30;59.30;;;12.12;62.02;100302.31;12251022;19;20011;-88
2023/01/12 13:43:14;;;;;;;0.55;0.55;;;13.30;59.20;;;12.20;61.94;100299.19;12250774;19;20024;-87
2023/01/12 13:47:29;;;;;;;0.52;0.52;;;13.40;59.30;;;12.16;61.83;100299.38;12251510;19;20021;-87
2023/01/12 13:51:41;;;;;;;0.50;0.38;;;13.40;59.20;;;12.14;61.85;100284.72;12251304;19;20375;-87
2023/01/12 13:56:02;;;;;;;1.00;0.60;;;13.40;59.10;;;12.23;61.80;100309.44;12250767;19;20022;-88
2023/01/12 14:00:17;;;;;;;0.50;0.50;;;13.40;59.00;;;12.23;61.77;100299.78;12255460;19;20027;-87
2023/01/12 14:04:40;;;;;;;0.50;0.50;;;13.50;59.10;;;12.29;61.81;100309.03;12249408;19;20006;-87
2023/01/12 14:08:58;;;;;;;0.47;0.47;;;13.50;59.20;;;12.31;61.86;100307.97;12252456;19;20010;-87
2023/01/12 14:13:28;;;;;;;0.50;0.50;;;13.50;59.00;;;12.32;61.80;100308.81;12259068;19;20027;-88
2023/01/12 14:17:48;;;;;;;0.60;0.55;;;13.50;59.10;;;12.29;61.90;100296.78;12261423;19;20010;-87
2023/01/12 14:21:58;;;;;;;0.57;0.57;;;13.50;58.90;;;12.27;61.79;100296.03;12260754;19;20018;-87
2023/01/12 14:26:13;;;;;;;0.68;0.68;;;13.50;59.00;;;12.26;61.89;100283.03;12264963;19;20006;-88
2023/01/12 14:30:15;;;;;;;0.40;0.40;;;13.50;58.90;;;12.17;61.75;100274.88;12264080;19;20363;-87
2023/01/12 14:34:33;;;;;;;0.68;0.50;;;13.50;59.00;;;12.34;61.84;100301.66;12261053;19;20017;-88
2023/01/12 14:38:41;;;;;;;0.60;0.60;;;13.60;59.00;;;12.42;61.80;100325.53;12256960;19;20019;-87
2023/01/12 14:47:26;;;;;;;0.93;0.60;;;13.60;58.90;;;12.34;61.75;100288.56;12259667;19;20025;-88
2023/01/12 14:55:40;;;;;;;0.47;0.47;;;13.60;58.80;;;12.38;61.75;100295.28;12257658;19;20007;-88
2023/01/12 14:59:45;;;;;;;0.50;0.50;;;13.60;58.80;;;12.28;61.69;100275.91;12260772;19;20056;-87
2023/01/12 15:03:49;;;;;;;0.50;0.50;;;13.60;58.80;;;12.32;61.54;100280.00;12258099;19;20006;-87
2023/01/12 15:08:18;;;;;;;0.68;0.60;;;13.60;58.80;;;12.45;61.62;100303.53;12260137;19;20015;-88
2023/01/12 15:12:28;;;;;;;0.57;0.57;;;13.60;58.80;;;12.44;61.60;100302.72;12258427;19;20082;-88
2023/01/12 15:25:35;;;;;;;0.50;0.50;;;13.70;58.80;;;12.52;61.67;100320.50;12251255;19;20028;-87
2023/01/12 15:29:37;;;;;;;0.57;0.57;;;13.70;58.80;;;12.45;61.63;100304.41;12252051;19;20023;-87
2023/01/12 15:33:39;;;;;;;0.50;0.50;;;13.70;58.70;;;12.54;61.41;100313.38;12247757;19;20017;-87
2023/01/12 15:37:40;;;;;;;0.57;0.57;;;13.70;58.80;;;12.47;61.44;100309.50;12249945;19;20006;-87
2023/01/12 15:46:02;;;;;;;0.52;0.40;;;13.70;58.70;;;12.49;61.49;100297.16;12254320;19;20038;-88
2023/01/12 15:50:05;;;;;;;0.57;0.57;;;13.70;58.70;;;12.64;61.35;100319.66;12259594;19;20023;-87
2023/01/12 15:54:08;;;;;;;0.60;0.57;;;13.80;58.80;;;12.64;61.51;100324.91;12250628;19;20018;-88
2023/01/12 15:58:10;;;;;;;1.13;1.02;;;13.70;58.70;;;12.40;61.40;100281.16;12255262;19;20341;-88
2023/01/12 16:02:44;;;;;;;0.90;0.90;;;13.80;58.70;;;12.50;61.34;100290.97;12255080;19;20022;-88
2023/01/12 16:06:46;;;;;;;0.80;0.80;;;13.80;58.60;;;12.60;61.42;100310.34;12256310;19;20035;-88
2023/01/12 16:15:21;;;;;;;0.57;0.57;;;13.80;58.70;;;12.57;61.30;100308.75;12250743;19;20483;-87
2023/01/12 16:19:23;;;;;;;0.63;0.60;;;13.80;58.70;;;12.65;61.34;100321.31;12253715;19;20010;-87
2023/01/12 16:23:25;;;;;;;0.45;0.45;;;13.80;58.80;;;12.67;61.31;100323.84;12252670;19;20452;-88
2023/01/12 16:27:27;;;;;;;0.57;0.50;;;13.80;58.70;;;12.39;61.41;100266.38;12253027;19;20019;-87
2023/01/12 16:31:30;;;;;;;0.50;0.50;;;13.80;58.80;;;12.56;61.34;100299.25;12252306;19;20007;-87
2023/01/12 16:35:32;;;;;;;0.45;0.45;;;13.80;58.80;;;12.65;61.32;100310.84;12248763;19;20014;-87
2023/01/12 16:39:34;;;;;;;0.40;0.40;;;13.80;58.80;;;12.62;61.20;100306.66;12253485;19;20100;-87
2023/01/12 16:43:36;;;;;;;0.45;0.45;;;13.80;58.70;;;12.71;61.20;100320.88;12250134;19;20027;-87
2023/01/12 16:47:39;;;;;;;0.40;0.40;;;13.80;58.80;;;12.68;61.23;100315.03;12256723;19;20010;-88
2023/01/12 16:51:41;;;;;;;0.40;0.40;;;13.80;58.80;;;12.60;61.24;100299.84;12256227;19;20006;-87
2023/01/12 16:55:43;;;;;;;0.50;0.50;;;13.80;58.80;;;12.59;61.27;100298.19;12251838;19;20431;-87
2023/01/12 16:59:44;;;;;;;0.40;0.40;;;13.80;58.80;;;12.71;61.25;100315.66;12252808;19;20030;-88
2023/01/12 17:03:47;;;;;;;0.60;0.60;;;13.80;58.70;;;12.63;61.20;100310.13;12249561;19;20070;-88
2023/01/12 17:07:48;;;;;;;0.50;0.50;;;13.80;58.80;;;12.53;61.35;100282.88;12251029;19;20018;-87
2023/01/12 17:11:50;;;;;;;0.50;0.50;;;13.80;58.80;;;12.74;61.30;100328.53;12252091;19;20015;-88
2023/01/12 17:15:53;;;;;;;1.75;0.47;;;13.80;58.70;;;12.61;61.25;100298.94;12249465;19;20052;-88
2023/01/12 17:19:54;;;;;;;0.73;0.43;;;13.90;58.80;;;12.52;61.20;100281.22;12251114;19;20018;-87
2023/01/12 17:23:56;;;;;;;0.60;0.60;;;13.90;58.70;;;12.83;61.24;100317.41;12240782;19;20026;-88
2023/01/12 17:27:58;;;;;;;0.60;0.60;;;13.90;58.80;;;12.68;61.16;100286.22;12245843;19;20668;-88
2023/01/12 17:32:02;;;;;;;0.95;0.50;;;13.90;58.80;;;12.68;61.25;100283.59;12247898;19;20841;-88
2023/01/12 17:36:07;;;;;;;0.40;0.40;;;13.90;58.70;;;12.85;61.23;100309.41;12248662;19;20002;-87
2023/01/12 17:40:10;;;;;;;0.65;0.65;;;13.90;58.80;;;12.87;61.16;100315.41;12248676;19;20029;-87
2023/01/12 17:44:12;;;;;;;0.70;0.70;;;14.00;58.90;;;12.90;61.23;100316.97;12248780;19;20045;-88
2023/01/12 17:48:17;;;;;;;0.52;0.52;;;14.00;59.10;;;12.90;61.28;100312.56;12251503;19;20082;-88
2023/01/12 17:52:20;;;;;;;0.88;0.77;;;14.00;59.10;;;12.79;61.20;100296.75;12248815;19;20014;-88
2023/01/12 17:56:23;;;;;;;0.55;0.50;;;14.00;59.10;;;12.86;61.29;100305.88;12249790;19;20010;-88
2023/01/12 18:00:25;;;;;;;0.70;0.70;;;14.00;59.10;;;12.83;61.26;100301.69;12251083;19;20011;-87
2023/01/12 18:04:27;;;;;;;0.52;0.52;;;14.00;59.10;;;12.87;61.25;100301.47;12250012;19;20011;-88
2023/01/12 18:08:29;;;;;;;0.65;0.65;;;14.00;59.10;;;12.83;61.15;100293.81;12251563;19;20094;-88
2023/01/12 18:12:31;;;;;;;1.10;0.65;;;14.00;59.10;;;12.42;61.17;100225.19;12248707;19;20052;-87
2023/01/12 18:16:34;;;;;;;0.60;0.60;;;14.00;59.10;;;12.88;61.26;100295.25;12247187;19;20015;-87
2023/01/12 18:20:35;;;;;;;1.55;0.65;;;14.00;59.20;;;12.96;61.24;100300.78;12252812;19;20066;-89